Time;durP1;ratioP1;P1;durP2;ratioP2;P2;SDS_P1;SDS_P2;PMS_P1;PMS_P2;Temp;Humidity;BMP_temperature;BMP_pressure;BME280_temperature;BME280_humidity;BME280_pressure;Samples;Min_cycle;Max_cycle;Signal;HPM_P1;HPM_P2
2024/04/20 00:00:11;;;;;;;;;;;;;;;;;;1103240;26;19942;-75
2024/04/20 00:00:43;;;;;;;;;;;;;;;;;;1104659;26;19985;-75
2024/04/20 00:01:13;;;;;;;;;;;;;;;;;;1104982;26;19930;-75
2024/04/20 00:01:43;;;;;;;;;;;;;;;;;;1112223;26;19975;-74
2024/04/20 00:02:13;;;;;;;;;;;;;;;;;;1107007;26;19930;-74
2024/04/20 00:02:44;;;;;;;;;;;;;;;;;;1114129;26;19929;-74
2024/04/20 00:03:14;;;;;;;;;;;;;;;;;;1106871;26;20441;-74
2024/04/20 00:03:44;;;;;;;;;;;;;;;;;;1107121;26;19944;-74
2024/04/20 00:04:15;;;;;;;;;;;;;;;;;;1106789;26;19930;-74
2024/04/20 00:04:45;;;;;;;;;;;;;;;;;;1108816;26;19962;-74
2024/04/20 00:05:15;;;;;;;;;;;;;;;;;;1107113;26;19999;-74
2024/04/20 00:05:45;;;;;;;;;;;;;;;;;;1108085;26;19937;-74
2024/04/20 00:06:16;;;;;;;;;;;;;;;;;;1109313;26;19977;-74
2024/04/20 00:06:47;;;;;;;;;;;;;;;;;;1104866;26;19954;-74
2024/04/20 00:07:17;;;;;;;;;;;;;;;;;;1104642;26;20348;-74
2024/04/20 00:07:47;;;;;;;;;;;;;;;;;;1104804;26;20621;-74
2024/04/20 00:08:17;;;;;;;;;;;;;;;;;;1113962;26;19936;-74
2024/04/20 00:08:48;;;;;;;;;;;;;;;;;;1121399;26;19928;-74
2024/04/20 00:09:18;;;;;;;;;;;;;;;;;;1121138;26;20336;-74
2024/04/20 00:09:48;;;;;;;;;;;;;;;;;;1114126;26;19997;-74
2024/04/20 00:10:18;;;;;;;;;;;;;;;;;;1108650;26;20018;-74
2024/04/20 00:10:49;;;;;;;;;;;;;;;;;;1108837;26;20409;-74
2024/04/20 00:11:20;;;;;;;;;;;;;;;;;;1113504;26;19929;-74
2024/04/20 00:11:51;;;;;;;;;;;;;;;;;;1112301;26;19943;-74
2024/04/20 00:12:21;;;;;;;;;;;;;;;;;;1111938;26;19935;-74
2024/04/20 00:12:52;;;;;;;;;;;;;;;;;;1112105;26;20343;-74
2024/04/20 00:13:22;;;;;;;;;;;;;;;;;;1111934;26;19937;-74
2024/04/20 00:13:52;;;;;;;;;;;;;;;;;;1119520;26;19929;-74
2024/04/20 00:14:22;;;;;;;;;;;;;;;;;;1115444;26;20449;-74
2024/04/20 00:14:53;;;;;;;;;;;;;;;;;;1119382;26;20015;-75
2024/04/20 00:15:23;;;;;;;;;;;;;;;;;;1115429;26;19961;-75
2024/04/20 00:15:53;;;;;;;;;;;;;;;;;;1116831;26;20347;-74
2024/04/20 00:16:23;;;;;;;;;;;;;;;;;;1109889;26;19991;-73
2024/04/20 00:16:55;;;;;;;;;;;;;;;;;;1115460;26;19936;-74
2024/04/20 00:17:25;;;;;;;;;;;;;;;;;;1122245;26;19948;-74
2024/04/20 00:17:55;;;;;;;;;;;;;;;;;;1122701;26;19965;-74
2024/04/20 00:18:26;;;;;;;;;;;;;;;;;;1113546;26;19934;-74
2024/04/20 00:18:56;;;;;;;;;;;;;;;;;;1113951;26;19986;-74
2024/04/20 00:19:26;;;;;;;;;;;;;;;;;;1123319;26;19969;-74
2024/04/20 00:19:56;;;;;;;;;;;;;;;;;;1123213;26;19969;-74
2024/04/20 00:20:31;;;;;;;;;;;;;;;;;;1127485;26;19960;-74
2024/04/20 00:21:01;;;;;;;;;;;;;;;;;;1119134;26;20299;-74
2024/04/20 00:21:31;;;;;;;;;;;;;;;;;;1111656;26;19929;-74
2024/04/20 00:22:02;;;;;;;;;;;;;;;;;;1109929;26;19948;-74
2024/04/20 00:22:32;;;;;;;;;;;;;;;;;;1112608;26;19965;-74
2024/04/20 00:23:02;;;;;;;;;;;;;;;;;;1116052;26;20009;-74
2024/04/20 00:23:32;;;;;;;;;;;;;;;;;;1116166;26;19957;-74
2024/04/20 00:24:03;;;;;;;;;;;;;;;;;;1116208;26;20467;-74
2024/04/20 00:24:33;;;;;;;;;;;;;;;;;;1123534;26;20336;-74
2024/04/20 00:25:03;;;;;;;;;;;;;;;;;;1114360;26;19999;-74
2024/04/20 00:25:33;;;;;;;;;;;;;;;;;;1119912;26;19936;-74
2024/04/20 00:26:04;;;;;;;;;;;;;;;;;;1119788;26;19940;-74
2024/04/20 00:26:34;;;;;;;;;;;;;;;;;;1116038;26;19935;-74
2024/04/20 00:27:04;;;;;;;;;;;;;;;;;;1114014;26;19930;-74
2024/04/20 00:27:35;;;;;;;;;;;;;;;;;;1117112;26;19983;-74
2024/04/20 00:28:06;;;;;;;;;;;;;;;;;;1116844;26;19929;-74
2024/04/20 00:28:36;;;;;;;;;;;;;;;;;;1124016;26;19932;-75
2024/04/20 00:29:06;;;;;;;;;;;;;;;;;;1114839;26;19983;-74
2024/04/20 00:29:36;;;;;;;;;;;;;;;;;;1117219;26;20325;-74
2024/04/20 00:30:07;;;;;;;;;;;;;;;;;;1119314;26;20401;-74
2024/04/20 00:30:37;;;;;;;;;;;;;;;;;;1119293;26;19981;-74
2024/04/20 00:31:07;;;;;;;;;;;;;;;;;;1126515;26;19933;-74
2024/04/20 00:31:38;;;;;;;;;;;;;;;;;;1112017;26;19956;-74
2024/04/20 00:32:08;;;;;;;;;;;;;;;;;;1111516;26;19930;-74
2024/04/20 00:32:39;;;;;;;;;;;;;;;;;;1112144;26;19937;-74
2024/04/20 00:33:09;;;;;;;;;;;;;;;;;;1111705;26;19937;-74
2024/04/20 00:33:39;;;;;;;;;;;;;;;;;;1109292;26;19937;-74
2024/04/20 00:34:09;;;;;;;;;;;;;;;;;;1115694;26;20380;-74
2024/04/20 00:34:40;;;;;;;;;;;;;;;;;;1108747;26;19958;-74
2024/04/20 00:35:11;;;;;;;;;;;;;;;;;;1106602;26;19962;-74
2024/04/20 00:35:41;;;;;;;;;;;;;;;;;;1115479;26;19937;-74
2024/04/20 00:36:12;;;;;;;;;;;;;;;;;;1116153;26;19935;-74
2024/04/20 00:36:42;;;;;;;;;;;;;;;;;;1118682;26;19944;-74
2024/04/20 00:37:12;;;;;;;;;;;;;;;;;;1117147;26;19936;-74
2024/04/20 00:37:42;;;;;;;;;;;;;;;;;;1119362;26;19929;-74
2024/04/20 00:38:12;;;;;;;;;;;;;;;;;;1114440;26;19998;-74
2024/04/20 00:38:43;;;;;;;;;;;;;;;;;;1122807;26;19965;-74
2024/04/20 00:39:13;;;;;;;;;;;;;;;;;;1116324;26;19940;-74
2024/04/20 00:39:43;;;;;;;;;;;;;;;;;;1109038;26;19969;-74
2024/04/20 00:40:14;;;;;;;;;;;;;;;;;;1126552;26;19933;-74
2024/04/20 00:40:45;;;;;;;;;;;;;;;;;;1119206;26;19987;-74
2024/04/20 00:41:15;;;;;;;;;;;;;;;;;;1119112;26;19968;-74
2024/04/20 00:41:45;;;;;;;;;;;;;;;;;;1111780;26;19969;-74
2024/04/20 00:42:16;;;;;;;;;;;;;;;;;;1120324;21;19929;-74
2024/04/20 00:42:46;;;;;;;;;;;;;;;;;;1113960;26;20434;-74
2024/04/20 00:43:16;;;;;;;;;;;;;;;;;;1119041;26;20425;-74
2024/04/20 00:43:46;;;;;;;;;;;;;;;;;;1126172;26;19928;-74
2024/04/20 00:44:17;;;;;;;;;;;;;;;;;;1126958;26;19965;-74
2024/04/20 00:44:47;;;;;;;;;;;;;;;;;;1127018;26;20298;-74
2024/04/20 00:45:17;;;;;;;;;;;;;;;;;;1126897;26;20011;-74
2024/04/20 00:45:48;;;;;;;;;;;;;;;;;;1127085;26;19956;-74
2024/04/20 00:46:18;;;;;;;;;;;;;;;;;;1127090;26;19956;-74
2024/04/20 00:46:49;;;;;;;;;;;;;;;;;;1119306;26;19936;-74
2024/04/20 00:47:19;;;;;;;;;;;;;;;;;;1119305;26;19929;-74
2024/04/20 00:47:49;;;;;;;;;;;;;;;;;;1113737;26;19929;-74
2024/04/20 00:48:19;;;;;;;;;;;;;;;;;;1115970;26;20367;-74
2024/04/20 00:48:49;;;;;;;;;;;;;;;;;;1119225;26;20377;-74
2024/04/20 00:49:20;;;;;;;;;;;;;;;;;;1119086;26;20383;-74
2024/04/20 00:49:50;;;;;;;;;;;;;;;;;;1124696;26;19965;-74
2024/04/20 00:50:21;;;;;;;;;;;;;;;;;;1124573;26;20059;-74
2024/04/20 00:50:51;;;;;;;;;;;;;;;;;;1128723;26;19929;-74
2024/04/20 00:51:22;;;;;;;;;;;;;;;;;;1124565;26;19936;-74
2024/04/20 00:51:52;;;;;;;;;;;;;;;;;;1121344;26;19928;-75
2024/04/20 00:52:22;;;;;;;;;;;;;;;;;;1123685;26;19935;-74
2024/04/20 00:52:52;;;;;;;;;;;;;;;;;;1125386;26;19940;-76
2024/04/20 00:53:23;;;;;;;;;;;;;;;;;;1124001;26;20284;-74
2024/04/20 00:53:53;;;;;;;;;;;;;;;;;;1119217;26;20285;-74
2024/04/20 00:54:23;;;;;;;;;;;;;;;;;;1119309;26;19960;-74
2024/04/20 00:54:53;;;;;;;;;;;;;;;;;;1119323;26;19936;-74
2024/04/20 00:55:24;;;;;;;;;;;;;;;;;;1119197;26;20415;-74
2024/04/20 00:55:54;;;;;;;;;;;;;;;;;;1119168;26;19965;-74
2024/04/20 00:56:24;;;;;;;;;;;;;;;;;;1119240;26;19933;-74
2024/04/20 00:56:55;;;;;;;;;;;;;;;;;;1115466;26;19975;-75
2024/04/20 00:57:25;;;;;;;;;;;;;;;;;;1119027;26;20346;-75
2024/04/20 00:57:55;;;;;;;;;;;;;;;;;;1111846;26;19933;-74
2024/04/20 00:58:25;;;;;;;;;;;;;;;;;;1111978;26;20377;-74
2024/04/20 00:58:56;;;;;;;;;;;;;;;;;;1111802;26;20381;-74
2024/04/20 00:59:27;;;;;;;;;;;;;;;;;;1111254;26;19930;-74
2024/04/20 00:59:57;;;;;;;;;;;;;;;;;;1118452;26;19941;-74
2024/04/20 01:00:27;;;;;;;;;;;;;;;;;;1119099;26;19933;-74
2024/04/20 01:00:58;;;;;;;;;;;;;;;;;;1126627;26;20412;-74
2024/04/20 01:01:28;;;;;;;;;;;;;;;;;;1119270;26;19941;-74
2024/04/20 01:01:58;;;;;;;;;;;;;;;;;;1111871;26;20281;-75
2024/04/20 01:02:28;;;;;;;;;;;;;;;;;;1112811;26;19944;-74
2024/04/20 01:02:59;;;;;;;;;;;;;;;;;;1105138;26;19941;-74
2024/04/20 01:03:29;;;;;;;;;;;;;;;;;;1110262;26;19999;-75
2024/04/20 01:03:59;;;;;;;;;;;;;;;;;;1107051;26;20413;-75
2024/04/20 01:04:30;;;;;;;;;;;;;;;;;;1117482;26;20023;-75
2024/04/20 01:05:00;;;;;;;;;;;;;;;;;;1123797;26;19933;-75
2024/04/20 01:05:30;;;;;;;;;;;;;;;;;;1111725;26;19958;-75
2024/04/20 01:06:00;;;;;;;;;;;;;;;;;;1119222;26;19943;-75
2024/04/20 01:06:31;;;;;;;;;;;;;;;;;;1119379;26;20392;-75
2024/04/20 01:07:01;;;;;;;;;;;;;;;;;;1119277;26;19935;-75
2024/04/20 01:07:31;;;;;;;;;;;;;;;;;;1119092;26;19941;-75
2024/04/20 01:08:01;;;;;;;;;;;;;;;;;;1112008;26;19961;-75
2024/04/20 01:08:33;;;;;;;;;;;;;;;;;;1111944;26;19930;-75
2024/04/20 01:09:03;;;;;;;;;;;;;;;;;;1111748;26;19961;-74
2024/04/20 01:09:33;;;;;;;;;;;;;;;;;;1118025;26;19929;-74
2024/04/20 01:10:04;;;;;;;;;;;;;;;;;;1111764;26;19983;-75
2024/04/20 01:10:34;;;;;;;;;;;;;;;;;;1111813;26;19930;-75
2024/04/20 01:11:04;;;;;;;;;;;;;;;;;;1119017;26;19944;-74
2024/04/20 01:11:35;;;;;;;;;;;;;;;;;;1111766;26;19985;-74
2024/04/20 01:12:05;;;;;;;;;;;;;;;;;;1117967;26;20038;-74
2024/04/20 01:12:35;;;;;;;;;;;;;;;;;;1123282;26;19928;-74
2024/04/20 01:13:06;;;;;;;;;;;;;;;;;;1117985;26;19982;-75
2024/04/20 01:13:36;;;;;;;;;;;;;;;;;;1111808;26;20347;-75
2024/04/20 01:14:07;;;;;;;;;;;;;;;;;;1102561;26;19930;-76
2024/04/20 01:14:37;;;;;;;;;;;;;;;;;;1104581;26;20415;-76
2024/04/20 01:15:07;;;;;;;;;;;;;;;;;;1110408;26;20425;-76
2024/04/20 01:15:37;;;;;;;;;;;;;;;;;;1111669;26;20527;-75
2024/04/20 01:16:08;;;;;;;;;;;;;;;;;;1119229;26;20333;-77
2024/04/20 01:16:38;;;;;;;;;;;;;;;;;;1119402;26;19936;-76
2024/04/20 01:17:08;;;;;;;;;;;;;;;;;;1118953;26;20393;-75
2024/04/20 01:17:38;;;;;;;;;;;;;;;;;;1127136;26;19936;-76
2024/04/20 01:18:08;;;;;;;;;;;;;;;;;;1118901;26;19929;-76
2024/04/20 01:18:39;;;;;;;;;;;;;;;;;;1129473;21;20361;-74
2024/04/20 01:19:09;;;;;;;;;;;;;;;;;;1124555;26;20331;-75
2024/04/20 01:19:39;;;;;;;;;;;;;;;;;;1121588;26;20288;-74
2024/04/20 01:20:13;;;;;;;;;;;;;;;;;;1130960;26;19938;-75
2024/04/20 01:20:43;;;;;;;;;;;;;;;;;;1130372;26;19947;-75
2024/04/20 01:21:13;;;;;;;;;;;;;;;;;;1132831;26;20368;-74
2024/04/20 01:21:44;;;;;;;;;;;;;;;;;;1129111;26;19928;-74
2024/04/20 01:22:14;;;;;;;;;;;;;;;;;;1133015;26;19996;-75
2024/04/20 01:22:44;;;;;;;;;;;;;;;;;;1127374;26;19928;-75
2024/04/20 01:23:14;;;;;;;;;;;;;;;;;;1116847;26;19939;-77
2024/04/20 01:23:44;;;;;;;;;;;;;;;;;;1113047;26;20265;-76
2024/04/20 01:24:15;;;;;;;;;;;;;;;;;;1118122;26;19929;-76
2024/04/20 01:24:45;;;;;;;;;;;;;;;;;;1114975;26;19929;-76
2024/04/20 01:25:15;;;;;;;;;;;;;;;;;;1111791;26;19929;-75
2024/04/20 01:25:45;;;;;;;;;;;;;;;;;;1112073;26;19929;-76
2024/04/20 01:26:16;;;;;;;;;;;;;;;;;;1114016;26;20280;-74
2024/04/20 01:26:46;;;;;;;;;;;;;;;;;;1113740;26;19999;-75
2024/04/20 01:27:16;;;;;;;;;;;;;;;;;;1117613;26;20285;-75
2024/04/20 01:27:47;;;;;;;;;;;;;;;;;;1117578;26;19933;-75
2024/04/20 01:28:17;;;;;;;;;;;;;;;;;;1116168;26;19983;-77
2024/04/20 01:28:47;;;;;;;;;;;;;;;;;;1115521;26;19929;-76
2024/04/20 01:29:19;;;;;;;;;;;;;;;;;;1110288;26;19941;-76
2024/04/20 01:29:49;;;;;;;;;;;;;;;;;;1101876;26;19941;-76
2024/04/20 01:30:19;;;;;;;;;;;;;;;;;;1101731;26;19986;-75
2024/04/20 01:30:50;;;;;;;;;;;;;;;;;;1103216;26;19963;-75
2024/04/20 01:31:20;;;;;;;;;;;;;;;;;;1111617;26;19941;-75
2024/04/20 01:31:50;;;;;;;;;;;;;;;;;;1118663;26;20416;-74
2024/04/20 01:32:20;;;;;;;;;;;;;;;;;;1109622;26;20398;-75
2024/04/20 01:32:51;;;;;;;;;;;;;;;;;;1114434;26;19969;-74
2024/04/20 01:33:21;;;;;;;;;;;;;;;;;;1111815;26;19929;-74
2024/04/20 01:33:51;;;;;;;;;;;;;;;;;;1114032;26;20320;-75
2024/04/20 01:34:21;;;;;;;;;;;;;;;;;;1128288;21;20384;-76
2024/04/20 01:34:52;;;;;;;;;;;;;;;;;;1118854;26;20331;-75
2024/04/20 01:35:22;;;;;;;;;;;;;;;;;;1118781;26;19940;-75
2024/04/20 01:35:52;;;;;;;;;;;;;;;;;;1118128;26;19956;-75
2024/04/20 01:36:22;;;;;;;;;;;;;;;;;;1119104;26;19929;-75
2024/04/20 01:36:53;;;;;;;;;;;;;;;;;;1115920;26;19937;-75
2024/04/20 01:37:23;;;;;;;;;;;;;;;;;;1115145;26;19969;-75
2024/04/20 01:37:53;;;;;;;;;;;;;;;;;;1114424;26;19936;-75
2024/04/20 01:38:25;;;;;;;;;;;;;;;;;;1114339;26;19929;-75
2024/04/20 01:38:57;;;;;;;;;;;;;;;;;;1117088;26;19957;-75
2024/04/20 01:39:27;;;;;;;;;;;;;;;;;;1122192;26;19936;-76
2024/04/20 01:39:57;;;;;;;;;;;;;;;;;;1121412;26;19940;-76
2024/04/20 01:40:27;;;;;;;;;;;;;;;;;;1122873;26;19972;-76
2024/04/20 01:40:57;;;;;;;;;;;;;;;;;;1117700;26;20284;-75
2024/04/20 01:41:28;;;;;;;;;;;;;;;;;;1104595;26;19940;-75
2024/04/20 01:41:58;;;;;;;;;;;;;;;;;;1104485;26;19999;-75
2024/04/20 01:42:28;;;;;;;;;;;;;;;;;;1111820;26;19933;-75
2024/04/20 01:42:58;;;;;;;;;;;;;;;;;;1116273;26;19930;-75
2024/04/20 01:43:29;;;;;;;;;;;;;;;;;;1116280;26;19929;-75
2024/04/20 01:43:59;;;;;;;;;;;;;;;;;;1122342;26;19929;-75
2024/04/20 01:44:29;;;;;;;;;;;;;;;;;;1122305;26;20661;-75
2024/04/20 01:44:59;;;;;;;;;;;;;;;;;;1124410;26;19936;-75
2024/04/20 01:45:30;;;;;;;;;;;;;;;;;;1123250;26;19973;-75
2024/04/20 01:46:00;;;;;;;;;;;;;;;;;;1116570;26;20032;-75
2024/04/20 01:46:30;;;;;;;;;;;;;;;;;;1110348;26;19966;-76
2024/04/20 01:47:00;;;;;;;;;;;;;;;;;;1111785;26;19977;-75
2024/04/20 01:47:31;;;;;;;;;;;;;;;;;;1112521;21;19957;-75
2024/04/20 01:48:01;;;;;;;;;;;;;;;;;;1104347;26;20018;-76
2024/04/20 01:48:31;;;;;;;;;;;;;;;;;;1114297;26;19999;-76
2024/04/20 01:49:02;;;;;;;;;;;;;;;;;;1115335;26;19929;-76
2024/04/20 01:49:32;;;;;;;;;;;;;;;;;;1105002;26;19938;-77
2024/04/20 01:50:02;;;;;;;;;;;;;;;;;;1105117;26;20336;-76
2024/04/20 01:50:33;;;;;;;;;;;;;;;;;;1104712;26;20336;-75
2024/04/20 01:51:03;;;;;;;;;;;;;;;;;;1105650;26;20287;-75
2024/04/20 01:51:33;;;;;;;;;;;;;;;;;;1105671;26;20277;-76
2024/04/20 01:52:03;;;;;;;;;;;;;;;;;;1105887;26;19937;-76
2024/04/20 01:52:34;;;;;;;;;;;;;;;;;;1106408;26;19930;-76
2024/04/20 01:53:04;;;;;;;;;;;;;;;;;;1105683;26;19942;-76
2024/04/20 01:53:35;;;;;;;;;;;;;;;;;;1098263;27;20386;-76
2024/04/20 01:54:06;;;;;;;;;;;;;;;;;;1097965;27;19937;-76
2024/04/20 01:54:37;;;;;;;;;;;;;;;;;;1091382;27;19935;-76
2024/04/20 01:55:07;;;;;;;;;;;;;;;;;;1102202;26;19936;-76
2024/04/20 01:55:37;;;;;;;;;;;;;;;;;;1101068;26;19937;-76
2024/04/20 01:56:07;;;;;;;;;;;;;;;;;;1101111;26;20004;-75
2024/04/20 01:56:38;;;;;;;;;;;;;;;;;;1105169;26;19941;-75
2024/04/20 01:57:08;;;;;;;;;;;;;;;;;;1098011;26;19938;-75
2024/04/20 01:57:38;;;;;;;;;;;;;;;;;;1104829;26;19941;-75
2024/04/20 01:58:08;;;;;;;;;;;;;;;;;;1103276;26;19941;-75
2024/04/20 01:58:39;;;;;;;;;;;;;;;;;;1110175;26;19934;-75
2024/04/20 01:59:09;;;;;;;;;;;;;;;;;;1108415;26;20050;-76
2024/04/20 01:59:39;;;;;;;;;;;;;;;;;;1098360;26;19966;-75
2024/04/20 02:00:09;;;;;;;;;;;;;;;;;;1105084;26;19930;-75
2024/04/20 02:00:40;;;;;;;;;;;;;;;;;;1105414;26;19945;-75
2024/04/20 02:01:10;;;;;;;;;;;;;;;;;;1104873;26;20012;-75
2024/04/20 02:01:44;;;;;;;;;;;;;;;;;;1112630;26;19958;-75
2024/04/20 02:02:14;;;;;;;;;;;;;;;;;;1112799;26;19929;-76
2024/04/20 02:02:44;;;;;;;;;;;;;;;;;;1112684;26;19929;-76
2024/04/20 02:03:14;;;;;;;;;;;;;;;;;;1112171;26;19930;-75
2024/04/20 02:03:45;;;;;;;;;;;;;;;;;;1129245;21;19986;-75
2024/04/20 02:04:15;;;;;;;;;;;;;;;;;;1123584;26;20363;-75
2024/04/20 02:04:45;;;;;;;;;;;;;;;;;;1123545;26;20378;-76
2024/04/20 02:05:15;;;;;;;;;;;;;;;;;;1123646;26;19937;-76
2024/04/20 02:05:46;;;;;;;;;;;;;;;;;;1123013;26;20097;-76
2024/04/20 02:06:16;;;;;;;;;;;;;;;;;;1125597;26;19949;-75
2024/04/20 02:06:46;;;;;;;;;;;;;;;;;;1121907;26;20406;-76
2024/04/20 02:07:17;;;;;;;;;;;;;;;;;;1125782;26;19937;-76
2024/04/20 02:07:47;;;;;;;;;;;;;;;;;;1117035;26;19930;-75
2024/04/20 02:08:17;;;;;;;;;;;;;;;;;;1118179;26;19936;-76
2024/04/20 02:08:48;;;;;;;;;;;;;;;;;;1115329;26;19930;-76
2024/04/20 02:09:19;;;;;;;;;;;;;;;;;;1113284;26;20381;-76
2024/04/20 02:09:50;;;;;;;;;;;;;;;;;;1117330;26;19998;-75
2024/04/20 02:10:20;;;;;;;;;;;;;;;;;;1115422;26;19933;-76
2024/04/20 02:10:50;;;;;;;;;;;;;;;;;;1115016;26;19929;-76
2024/04/20 02:11:20;;;;;;;;;;;;;;;;;;1115031;26;19937;-77
2024/04/20 02:11:50;;;;;;;;;;;;;;;;;;1113272;26;19936;-75
2024/04/20 02:12:21;;;;;;;;;;;;;;;;;;1114327;26;19930;-76
2024/04/20 02:12:51;;;;;;;;;;;;;;;;;;1114957;26;19929;-76
2024/04/20 02:13:23;;;;;;;;;;;;;;;;;;1112717;26;19937;-76
2024/04/20 02:13:53;;;;;;;;;;;;;;;;;;1108553;26;19966;-76
2024/04/20 02:14:24;;;;;;;;;;;;;;;;;;1108014;26;19936;-76
2024/04/20 02:14:55;;;;;;;;;;;;;;;;;;1115855;26;19937;-76
2024/04/20 02:15:25;;;;;;;;;;;;;;;;;;1115279;26;19936;-76
2024/04/20 02:15:56;;;;;;;;;;;;;;;;;;1108560;26;20029;-76
2024/04/20 02:16:26;;;;;;;;;;;;;;;;;;1105246;26;19938;-76
2024/04/20 02:16:56;;;;;;;;;;;;;;;;;;1105218;26;19999;-76
2024/04/20 02:17:26;;;;;;;;;;;;;;;;;;1106877;26;19957;-76
2024/04/20 02:17:56;;;;;;;;;;;;;;;;;;1116216;26;19957;-76
2024/04/20 02:18:27;;;;;;;;;;;;;;;;;;1115006;26;19937;-76
2024/04/20 02:18:57;;;;;;;;;;;;;;;;;;1119496;26;20490;-76
2024/04/20 02:19:27;;;;;;;;;;;;;;;;;;1113430;26;20499;-76
2024/04/20 02:19:57;;;;;;;;;;;;;;;;;;1117689;26;19933;-76
2024/04/20 02:20:28;;;;;;;;;;;;;;;;;;1117031;26;19966;-76
2024/04/20 02:20:58;;;;;;;;;;;;;;;;;;1116310;26;19929;-75
2024/04/20 02:21:28;;;;;;;;;;;;;;;;;;1118148;26;19993;-77
2024/04/20 02:21:59;;;;;;;;;;;;;;;;;;1118279;26;19946;-75
2024/04/20 02:22:29;;;;;;;;;;;;;;;;;;1113687;26;19936;-75
2024/04/20 02:22:59;;;;;;;;;;;;;;;;;;1115117;26;19932;-75
2024/04/20 02:23:29;;;;;;;;;;;;;;;;;;1116132;26;19931;-75
2024/04/20 02:24:00;;;;;;;;;;;;;;;;;;1115331;26;20372;-76
2024/04/20 02:24:30;;;;;;;;;;;;;;;;;;1115705;26;19937;-75
2024/04/20 02:25:00;;;;;;;;;;;;;;;;;;1112941;26;19930;-76
2024/04/20 02:25:30;;;;;;;;;;;;;;;;;;1112006;26;19937;-76
2024/04/20 02:26:01;;;;;;;;;;;;;;;;;;1114744;26;19949;-76
2024/04/20 02:26:31;;;;;;;;;;;;;;;;;;1116305;26;20377;-76
2024/04/20 02:27:01;;;;;;;;;;;;;;;;;;1116278;26;19936;-76
2024/04/20 02:27:32;;;;;;;;;;;;;;;;;;1117208;26;19936;-76
2024/04/20 02:28:02;;;;;;;;;;;;;;;;;;1115881;26;19969;-75
2024/04/20 02:28:32;;;;;;;;;;;;;;;;;;1115999;26;19969;-75
2024/04/20 02:29:03;;;;;;;;;;;;;;;;;;1115203;26;19948;-76
2024/04/20 02:29:33;;;;;;;;;;;;;;;;;;1118130;26;20379;-75
2024/04/20 02:30:04;;;;;;;;;;;;;;;;;;1116331;26;19942;-76
2024/04/20 02:30:34;;;;;;;;;;;;;;;;;;1116348;26;19999;-75
2024/04/20 02:31:04;;;;;;;;;;;;;;;;;;1107705;26;19930;-76
2024/04/20 02:31:34;;;;;;;;;;;;;;;;;;1107623;26;20032;-76
2024/04/20 02:32:05;;;;;;;;;;;;;;;;;;1115498;26;20343;-76
2024/04/20 02:32:35;;;;;;;;;;;;;;;;;;1116553;26;20013;-75
2024/04/20 02:33:05;;;;;;;;;;;;;;;;;;1115304;26;19983;-76
2024/04/20 02:33:36;;;;;;;;;;;;;;;;;;1116249;26;19999;-76
2024/04/20 02:34:06;;;;;;;;;;;;;;;;;;1116796;26;19929;-76
2024/04/20 02:34:36;;;;;;;;;;;;;;;;;;1116583;26;19991;-76
2024/04/20 02:35:07;;;;;;;;;;;;;;;;;;1114290;26;20297;-76
2024/04/20 02:35:38;;;;;;;;;;;;;;;;;;1112986;26;19956;-76
2024/04/20 02:36:08;;;;;;;;;;;;;;;;;;1114583;26;20013;-75
2024/04/20 02:36:38;;;;;;;;;;;;;;;;;;1116694;26;20365;-75
2024/04/20 02:37:09;;;;;;;;;;;;;;;;;;1113116;26;20398;-75
2024/04/20 02:37:39;;;;;;;;;;;;;;;;;;1110566;26;20284;-76
2024/04/20 02:38:09;;;;;;;;;;;;;;;;;;1112640;26;19937;-76
2024/04/20 02:38:40;;;;;;;;;;;;;;;;;;1115287;26;19929;-75
2024/04/20 02:39:10;;;;;;;;;;;;;;;;;;1112821;26;19929;-75
2024/04/20 02:39:40;;;;;;;;;;;;;;;;;;1112522;26;19930;-76
2024/04/20 02:40:10;;;;;;;;;;;;;;;;;;1115449;26;20546;-76
2024/04/20 02:40:41;;;;;;;;;;;;;;;;;;1114497;26;19979;-75
2024/04/20 02:41:11;;;;;;;;;;;;;;;;;;1118407;26;20384;-78
2024/04/20 02:41:41;;;;;;;;;;;;;;;;;;1105443;26;19943;-75
2024/04/20 02:42:12;;;;;;;;;;;;;;;;;;1102314;26;20694;-74
2024/04/20 02:42:42;;;;;;;;;;;;;;;;;;1105727;26;19930;-75
2024/04/20 02:43:12;;;;;;;;;;;;;;;;;;1103345;26;19934;-75
2024/04/20 02:43:47;;;;;;;;;;;;;;;;;;1105677;26;20413;-78
2024/04/20 02:44:17;;;;;;;;;;;;;;;;;;1102595;26;19943;-76
2024/04/20 02:44:47;;;;;;;;;;;;;;;;;;1107219;26;19974;-76
2024/04/20 02:45:18;;;;;;;;;;;;;;;;;;1106793;26;19951;-75
2024/04/20 02:45:49;;;;;;;;;;;;;;;;;;1110194;26;19937;-75
2024/04/20 02:46:19;;;;;;;;;;;;;;;;;;1118715;26;19974;-76
2024/04/20 02:46:49;;;;;;;;;;;;;;;;;;1115287;26;19974;-76
2024/04/20 02:47:19;;;;;;;;;;;;;;;;;;1115275;26;19929;-75
2024/04/20 02:47:50;;;;;;;;;;;;;;;;;;1113794;26;19969;-75
2024/04/20 02:48:21;;;;;;;;;;;;;;;;;;1110953;26;19929;-78
2024/04/20 02:48:51;;;;;;;;;;;;;;;;;;1113104;26;19937;-75
2024/04/20 02:49:22;;;;;;;;;;;;;;;;;;1112770;26;19929;-75
2024/04/20 02:49:52;;;;;;;;;;;;;;;;;;1112141;26;20274;-76
2024/04/20 02:50:23;;;;;;;;;;;;;;;;;;1114681;26;20359;-74
2024/04/20 02:50:53;;;;;;;;;;;;;;;;;;1103551;26;19966;-75
2024/04/20 02:51:23;;;;;;;;;;;;;;;;;;1103193;26;20593;-74
2024/04/20 02:51:54;;;;;;;;;;;;;;;;;;1098036;26;20429;-74
2024/04/20 02:52:24;;;;;;;;;;;;;;;;;;1107544;26;19944;-76
2024/04/20 02:52:54;;;;;;;;;;;;;;;;;;1102821;26;19938;-75
2024/04/20 02:53:25;;;;;;;;;;;;;;;;;;1102478;26;20374;-75
2024/04/20 02:53:55;;;;;;;;;;;;;;;;;;1107305;26;20665;-75
2024/04/20 02:54:26;;;;;;;;;;;;;;;;;;1112006;26;19965;-74
2024/04/20 02:54:56;;;;;;;;;;;;;;;;;;1113094;26;19966;-75
2024/04/20 02:55:26;;;;;;;;;;;;;;;;;;1116334;26;19928;-75
2024/04/20 02:55:57;;;;;;;;;;;;;;;;;;1113682;26;19937;-76
2024/04/20 02:56:27;;;;;;;;;;;;;;;;;;1116834;26;19933;-77
2024/04/20 02:56:57;;;;;;;;;;;;;;;;;;1108679;26;19934;-75
2024/04/20 02:57:28;;;;;;;;;;;;;;;;;;1112203;26;20315;-75
2024/04/20 02:57:58;;;;;;;;;;;;;;;;;;1115116;26;20002;-74
2024/04/20 02:58:29;;;;;;;;;;;;;;;;;;1105720;26;20352;-74
2024/04/20 02:59:00;;;;;;;;;;;;;;;;;;1100985;26;19930;-74
2024/04/20 02:59:30;;;;;;;;;;;;;;;;;;1099227;26;19942;-74
2024/04/20 03:00:00;;;;;;;;;;;;;;;;;;1095940;26;19937;-75
2024/04/20 03:00:30;;;;;;;;;;;;;;;;;;1097723;27;19930;-74
2024/04/20 03:01:01;;;;;;;;;;;;;;;;;;1100758;26;19976;-76
2024/04/20 03:01:31;;;;;;;;;;;;;;;;;;1104249;26;20480;-74
2024/04/20 03:02:01;;;;;;;;;;;;;;;;;;1111863;26;19936;-75
2024/04/20 03:02:32;;;;;;;;;;;;;;;;;;1115142;26;19998;-76
2024/04/20 03:03:02;;;;;;;;;;;;;;;;;;1112417;26;20506;-75
2024/04/20 03:03:33;;;;;;;;;;;;;;;;;;1107648;26;19964;-76
2024/04/20 03:04:04;;;;;;;;;;;;;;;;;;1108596;26;20002;-75
2024/04/20 03:04:34;;;;;;;;;;;;;;;;;;1105959;26;20603;-74
2024/04/20 03:05:04;;;;;;;;;;;;;;;;;;1112630;26;20413;-76
2024/04/20 03:05:35;;;;;;;;;;;;;;;;;;1110209;26;19937;-75
2024/04/20 03:06:05;;;;;;;;;;;;;;;;;;1112276;26;19946;-74
2024/04/20 03:06:35;;;;;;;;;;;;;;;;;;1114793;26;20307;-75
2024/04/20 03:07:06;;;;;;;;;;;;;;;;;;1116779;26;20056;-75
2024/04/20 03:07:36;;;;;;;;;;;;;;;;;;1112341;26;19938;-73
2024/04/20 03:08:06;;;;;;;;;;;;;;;;;;1117614;26;19969;-74
2024/04/20 03:08:37;;;;;;;;;;;;;;;;;;1108760;26;19937;-74
2024/04/20 03:09:07;;;;;;;;;;;;;;;;;;1107468;26;19970;-74
2024/04/20 03:09:37;;;;;;;;;;;;;;;;;;1117600;26;19932;-74
2024/04/20 03:10:08;;;;;;;;;;;;;;;;;;1116598;26;19929;-74
2024/04/20 03:10:39;;;;;;;;;;;;;;;;;;1114227;26;20281;-74
2024/04/20 03:11:09;;;;;;;;;;;;;;;;;;1114292;26;19997;-74
2024/04/20 03:11:39;;;;;;;;;;;;;;;;;;1115749;26;19929;-75
2024/04/20 03:12:09;;;;;;;;;;;;;;;;;;1108683;26;19999;-74
2024/04/20 03:12:40;;;;;;;;;;;;;;;;;;1106169;26;20022;-73
2024/04/20 03:13:10;;;;;;;;;;;;;;;;;;1101940;26;19971;-74
2024/04/20 03:13:40;;;;;;;;;;;;;;;;;;1109044;26;19957;-73
2024/04/20 03:14:10;;;;;;;;;;;;;;;;;;1106515;26;19966;-75
2024/04/20 03:14:41;;;;;;;;;;;;;;;;;;1106752;26;19930;-74
2024/04/20 03:15:11;;;;;;;;;;;;;;;;;;1105560;26;19936;-74
2024/04/20 03:15:41;;;;;;;;;;;;;;;;;;1108199;26;19961;-74
2024/04/20 03:16:12;;;;;;;;;;;;;;;;;;1096495;26;19990;-74
2024/04/20 03:16:42;;;;;;;;;;;;;;;;;;1099553;26;20004;-74
2024/04/20 03:17:12;;;;;;;;;;;;;;;;;;1103698;26;19930;-74
2024/04/20 03:17:43;;;;;;;;;;;;;;;;;;1106055;26;20035;-77
2024/04/20 03:18:13;;;;;;;;;;;;;;;;;;1107531;26;20033;-74
2024/04/20 03:18:43;;;;;;;;;;;;;;;;;;1114053;26;19930;-74
2024/04/20 03:19:13;;;;;;;;;;;;;;;;;;1111406;26;19936;-75
2024/04/20 03:19:44;;;;;;;;;;;;;;;;;;1112982;26;19938;-74
2024/04/20 03:20:14;;;;;;;;;;;;;;;;;;1116851;26;20393;-75
2024/04/20 03:20:44;;;;;;;;;;;;;;;;;;1106572;26;20409;-74
2024/04/20 03:21:14;;;;;;;;;;;;;;;;;;1110885;26;20324;-74
2024/04/20 03:21:45;;;;;;;;;;;;;;;;;;1111935;26;20389;-74
2024/04/20 03:22:15;;;;;;;;;;;;;;;;;;1115687;26;19943;-74
2024/04/20 03:22:45;;;;;;;;;;;;;;;;;;1114614;26;19957;-74
2024/04/20 03:23:16;;;;;;;;;;;;;;;;;;1112783;26;20479;-74
2024/04/20 03:23:46;;;;;;;;;;;;;;;;;;1116461;26;19929;-74
2024/04/20 03:24:16;;;;;;;;;;;;;;;;;;1113252;26;19941;-74
2024/04/20 03:24:47;;;;;;;;;;;;;;;;;;1109682;26;19930;-75
2024/04/20 03:25:17;;;;;;;;;;;;;;;;;;1112638;26;19934;-74
2024/04/20 03:25:47;;;;;;;;;;;;;;;;;;1113475;26;19929;-74
2024/04/20 03:26:17;;;;;;;;;;;;;;;;;;1112862;26;20380;-74
2024/04/20 03:26:48;;;;;;;;;;;;;;;;;;1117945;26;19977;-74
2024/04/20 03:27:18;;;;;;;;;;;;;;;;;;1111950;26;19957;-75